sensor_id;sensor_type;location;lat;lon;timestamp;pressure;altitude;pressure_sealevel;temperature;humidity
65897;BME280;52677;50.898;10.854;2023-02-01T00:01:51;98595.66;;;2.16;100.00
65897;BME280;52677;50.898;10.854;2023-02-01T00:03:52;98591.47;;;2.10;100.00
65897;BME280;52677;50.898;10.854;2023-02-01T00:05:59;98597.72;;;2.02;100.00
65897;BME280;52677;50.898;10.854;2023-02-01T00:08:00;98600.78;;;2.09;100.00
65897;BME280;52677;50.898;10.854;2023-02-01T00:10:00;98597.41;;;2.04;100.00
65897;BME280;52677;50.898;10.854;2023-02-01T00:12:00;98607.66;;;2.07;100.00
65897;BME280;52677;50.898;10.854;2023-02-01T00:14:02;98602.72;;;2.09;100.00
65897;BME280;52677;50.898;10.854;2023-02-01T00:16:10;98606.41;;;2.13;100.00
65897;BME280;52677;50.898;10.854;2023-02-01T00:18:12;98601.13;;;2.16;100.00
65897;BME280;52677;50.898;10.854;2023-02-01T00:20:12;98615.91;;;2.24;100.00
65897;BME280;52677;50.898;10.854;2023-02-01T00:22:13;98599.03;;;2.22;100.00
65897;BME280;52677;50.898;10.854;2023-02-01T00:24:13;98607.53;;;2.20;100.00
65897;BME280;52677;50.898;10.854;2023-02-01T00:26:16;98605.63;;;2.30;100.00
65897;BME280;52677;50.898;10.854;2023-02-01T00:28:17;98601.47;;;2.32;100.00
65897;BME280;52677;50.898;10.854;2023-02-01T00:30:17;98604.34;;;2.36;100.00
65897;BME280;52677;50.898;10.854;2023-02-01T00:32:18;98606.59;;;2.34;100.00
65897;BME280;52677;50.898;10.854;2023-02-01T00:34:19;98600.81;;;2.27;100.00
65897;BME280;52677;50.898;10.854;2023-02-01T00:36:20;98599.19;;;2.25;100.00
65897;BME280;52677;50.898;10.854;2023-02-01T00:38:20;98604.66;;;2.25;100.00
65897;BME280;52677;50.898;10.854;2023-02-01T00:40:21;98596.94;;;2.36;100.00
65897;BME280;52677;50.898;10.854;2023-02-01T00:42:21;98603.22;;;2.45;100.00
65897;BME280;52677;50.898;10.854;2023-02-01T00:44:21;98597.13;;;2.48;100.00
65897;BME280;52677;50.898;10.854;2023-02-01T00:46:22;98614.94;;;2.46;100.00
65897;BME280;52677;50.898;10.854;2023-02-01T00:48:22;98609.00;;;2.44;100.00
65897;BME280;52677;50.898;10.854;2023-02-01T00:50:22;98602.88;;;2.38;100.00
65897;BME280;52677;50.898;10.854;2023-02-01T00:52:23;98599.69;;;2.36;100.00
65897;BME280;52677;50.898;10.854;2023-02-01T00:54:23;98598.41;;;2.42;100.00
65897;BME280;52677;50.898;10.854;2023-02-01T00:56:24;98597.09;;;2.40;100.00
65897;BME280;52677;50.898;10.854;2023-02-01T00:58:24;98608.19;;;2.43;100.00
65897;BME280;52677;50.898;10.854;2023-02-01T01:00:26;98589.22;;;2.47;100.00
65897;BME280;52677;50.898;10.854;2023-02-01T01:02:26;98598.88;;;2.44;100.00
65897;BME280;52677;50.898;10.854;2023-02-01T01:04:27;98596.94;;;2.45;100.00
65897;BME280;52677;50.898;10.854;2023-02-01T01:06:30;98594.53;;;2.52;100.00
65897;BME280;52677;50.898;10.854;2023-02-01T01:08:32;98596.16;;;2.44;100.00
65897;BME280;52677;50.898;10.854;2023-02-01T01:10:32;98597.94;;;2.49;100.00
65897;BME280;52677;50.898;10.854;2023-02-01T01:12:32;98605.47;;;2.61;100.00
65897;BME280;52677;50.898;10.854;2023-02-01T01:14:33;98589.22;;;2.56;100.00
65897;BME280;52677;50.898;10.854;2023-02-01T01:16:33;98583.75;;;2.56;100.00
65897;BME280;52677;50.898;10.854;2023-02-01T01:18:34;98585.06;;;2.58;100.00
65897;BME280;52677;50.898;10.854;2023-02-01T01:20:37;98576.88;;;2.58;100.00
65897;BME280;52677;50.898;10.854;2023-02-01T01:22:37;98578.78;;;2.66;100.00
65897;BME280;52677;50.898;10.854;2023-02-01T01:24:39;98579.91;;;2.74;100.00
65897;BME280;52677;50.898;10.854;2023-02-01T01:26:39;98582.78;;;2.77;100.00
65897;BME280;52677;50.898;10.854;2023-02-01T01:28:39;98584.56;;;2.82;100.00
65897;BME280;52677;50.898;10.854;2023-02-01T01:30:40;98581.03;;;2.81;100.00
65897;BME280;52677;50.898;10.854;2023-02-01T01:32:40;98601.72;;;2.91;100.00
65897;BME280;52677;50.898;10.854;2023-02-01T01:34:40;98582.72;;;3.03;100.00
65897;BME280;52677;50.898;10.854;2023-02-01T01:36:41;98589.97;;;2.99;100.00
65897;BME280;52677;50.898;10.854;2023-02-01T01:38:41;98580.78;;;3.04;99.58
65897;BME280;52677;50.898;10.854;2023-02-01T01:40:46;98581.25;;;3.06;99.65
65897;BME280;52677;50.898;10.854;2023-02-01T01:42:46;98585.44;;;3.03;99.74
65897;BME280;52677;50.898;10.854;2023-02-01T01:45:01;98572.47;;;2.92;100.00
65897;BME280;52677;50.898;10.854;2023-02-01T01:47:03;98580.66;;;2.92;100.00
65897;BME280;52677;50.898;10.854;2023-02-01T01:49:17;98579.38;;;2.89;100.00
65897;BME280;52677;50.898;10.854;2023-02-01T01:51:23;98573.59;;;2.91;100.00
65897;BME280;52677;50.898;10.854;2023-02-01T01:53:33;98559.47;;;2.80;100.00
65897;BME280;52677;50.898;10.854;2023-02-01T01:55:38;98570.72;;;2.78;100.00
65897;BME280;52677;50.898;10.854;2023-02-01T01:57:44;98570.06;;;2.73;100.00
65897;BME280;52677;50.898;10.854;2023-02-01T01:59:50;98562.06;;;2.76;100.00
65897;BME280;52677;50.898;10.854;2023-02-01T02:01:55;98555.94;;;2.71;100.00
65897;BME280;52677;50.898;10.854;2023-02-01T02:03:56;98559.34;;;2.68;100.00
65897;BME280;52677;50.898;10.854;2023-02-01T02:05:58;98553.06;;;2.76;100.00
65897;BME280;52677;50.898;10.854;2023-02-01T02:07:59;98553.06;;;2.67;100.00
65897;BME280;52677;50.898;10.854;2023-02-01T02:10:10;98547.16;;;2.57;100.00
65897;BME280;52677;50.898;10.854;2023-02-01T02:12:11;98556.44;;;2.64;100.00
65897;BME280;52677;50.898;10.854;2023-02-01T02:14:13;98553.22;;;2.62;100.00
65897;BME280;52677;50.898;10.854;2023-02-01T02:42:27;98529.63;;;2.66;100.00
65897;BME280;52677;50.898;10.854;2023-02-01T02:44:49;98525.91;;;2.62;100.00
65897;BME280;52677;50.898;10.854;2023-02-01T02:47:24;98524.47;;;2.56;100.00
65897;BME280;52677;50.898;10.854;2023-02-01T02:49:35;98526.38;;;2.64;100.00
65897;BME280;52677;50.898;10.854;2023-02-01T02:51:50;98528.84;;;2.57;100.00
65897;BME280;52677;50.898;10.854;2023-02-01T02:54:13;98532.84;;;2.60;100.00
65897;BME280;52677;50.898;10.854;2023-02-01T02:56:35;98526.56;;;2.59;100.00
65897;BME280;52677;50.898;10.854;2023-02-01T02:58:54;98524.16;;;2.58;100.00
65897;BME280;52677;50.898;10.854;2023-02-01T03:01:13;98524.66;;;2.51;100.00
65897;BME280;52677;50.898;10.854;2023-02-01T03:03:36;98526.13;;;2.48;100.00
65897;BME280;52677;50.898;10.854;2023-02-01T03:05:56;98524.47;;;2.56;100.00
65897;BME280;52677;50.898;10.854;2023-02-01T03:08:03;98527.06;;;2.52;100.00
65897;BME280;52677;50.898;10.854;2023-02-01T03:10:08;98524.44;;;2.65;100.00
65897;BME280;52677;50.898;10.854;2023-02-01T03:12:12;98524.16;;;2.66;100.00
65897;BME280;52677;50.898;10.854;2023-02-01T03:14:35;98517.56;;;2.67;100.00
65897;BME280;52677;50.898;10.854;2023-02-01T03:16:42;98517.09;;;2.57;100.00
65897;BME280;52677;50.898;10.854;2023-02-01T03:18:54;98520.31;;;2.50;100.00
65897;BME280;52677;50.898;10.854;2023-02-01T03:20:56;98512.44;;;2.40;100.00
65897;BME280;52677;50.898;10.854;2023-02-01T03:22:59;98528.81;;;2.40;100.00
65897;BME280;52677;50.898;10.854;2023-02-01T03:25:03;98510.84;;;2.39;100.00
65897;BME280;52677;50.898;10.854;2023-02-01T03:29:22;98482.94;;;2.16;100.00
65897;BME280;52677;50.898;10.854;2023-02-01T03:31:24;98484.22;;;2.01;100.00
65897;BME280;52677;50.898;10.854;2023-02-01T03:33:25;98485.66;;;1.98;100.00
65897;BME280;52677;50.898;10.854;2023-02-01T03:35:38;98479.09;;;1.91;100.00
65897;BME280;52677;50.898;10.854;2023-02-01T03:37:40;98473.47;;;1.87;100.00
65897;BME280;52677;50.898;10.854;2023-02-01T03:40:00;98472.34;;;1.88;100.00
65897;BME280;52677;50.898;10.854;2023-02-01T03:42:24;98480.84;;;1.87;100.00
65897;BME280;52677;50.898;10.854;2023-02-01T03:44:34;98466.09;;;1.79;100.00
65897;BME280;52677;50.898;10.854;2023-02-01T03:46:41;98470.59;;;1.75;100.00
65897;BME280;52677;50.898;10.854;2023-02-01T03:48:44;98473.94;;;1.81;100.00
65897;BME280;52677;50.898;10.854;2023-02-01T03:50:49;98467.06;;;1.83;100.00
65897;BME280;52677;50.898;10.854;2023-02-01T03:52:51;98476.06;;;1.84;100.00
65897;BME280;52677;50.898;10.854;2023-02-01T03:54:53;98468.00;;;1.79;100.00
65897;BME280;52677;50.898;10.854;2023-02-01T03:56:56;98471.53;;;1.79;100.00
65897;BME280;52677;50.898;10.854;2023-02-01T03:58:58;98473.00;;;1.77;100.00
65897;BME280;52677;50.898;10.854;2023-02-01T04:01:00;98470.09;;;1.73;100.00
65897;BME280;52677;50.898;10.854;2023-02-01T04:03:03;98469.13;;;1.78;100.00
65897;BME280;52677;50.898;10.854;2023-02-01T04:05:04;98472.81;;;1.82;100.00
65897;BME280;52677;50.898;10.854;2023-02-01T04:07:04;98464.34;;;1.92;100.00
65897;BME280;52677;50.898;10.854;2023-02-01T04:09:05;98473.94;;;2.07;100.00
65897;BME280;52677;50.898;10.854;2023-02-01T04:11:05;98465.44;;;2.25;100.00
65897;BME280;52677;50.898;10.854;2023-02-01T04:13:06;98465.56;;;2.38;100.00
65897;BME280;52677;50.898;10.854;2023-02-01T04:15:07;98461.34;;;2.58;100.00
65897;BME280;52677;50.898;10.854;2023-02-01T04:17:07;98464.19;;;2.70;100.00
65897;BME280;52677;50.898;10.854;2023-02-01T04:19:08;98477.03;;;2.78;100.00
65897;BME280;52677;50.898;10.854;2023-02-01T04:21:08;98460.28;;;2.79;100.00
65897;BME280;52677;50.898;10.854;2023-02-01T04:23:09;98465.97;;;2.74;100.00
65897;BME280;52677;50.898;10.854;2023-02-01T04:25:09;98465.47;;;2.72;100.00
65897;BME280;52677;50.898;10.854;2023-02-01T04:27:09;98447.66;;;2.66;100.00
65897;BME280;52677;50.898;10.854;2023-02-01T04:29:10;98454.88;;;2.62;100.00
65897;BME280;52677;50.898;10.854;2023-02-01T04:31:10;98451.81;;;2.64;100.00
65897;BME280;52677;50.898;10.854;2023-02-01T04:33:10;98445.44;;;2.60;100.00
65897;BME280;52677;50.898;10.854;2023-02-01T04:35:13;98437.56;;;2.58;100.00
65897;BME280;52677;50.898;10.854;2023-02-01T04:37:14;98437.06;;;2.56;100.00
65897;BME280;52677;50.898;10.854;2023-02-01T04:39:14;98432.91;;;2.59;100.00
65897;BME280;52677;50.898;10.854;2023-02-01T04:41:15;98432.72;;;2.55;100.00
65897;BME280;52677;50.898;10.854;2023-02-01T04:43:18;98445.47;;;2.51;100.00
65897;BME280;52677;50.898;10.854;2023-02-01T04:45:19;98435.16;;;2.48;100.00
65897;BME280;52677;50.898;10.854;2023-02-01T04:47:19;98431.16;;;2.45;100.00
65897;BME280;52677;50.898;10.854;2023-02-01T04:49:19;98434.38;;;2.47;100.00
65897;BME280;52677;50.898;10.854;2023-02-01T04:51:21;98422.78;;;2.59;100.00
65897;BME280;52677;50.898;10.854;2023-02-01T04:53:22;98417.31;;;2.59;100.00
65897;BME280;52677;50.898;10.854;2023-02-01T04:55:22;98398.97;;;2.68;100.00
65897;BME280;52677;50.898;10.854;2023-02-01T04:57:23;98400.09;;;2.67;100.00
65897;BME280;52677;50.898;10.854;2023-02-01T04:59:23;98396.34;;;2.72;100.00
65897;BME280;52677;50.898;10.854;2023-02-01T05:01:24;98404.69;;;2.84;100.00
65897;BME280;52677;50.898;10.854;2023-02-01T05:03:26;98403.72;;;2.80;100.00
65897;BME280;52677;50.898;10.854;2023-02-01T05:05:28;98401.59;;;2.86;100.00
65897;BME280;52677;50.898;10.854;2023-02-01T05:07:28;98399.22;;;2.84;100.00
65897;BME280;52677;50.898;10.854;2023-02-01T05:09:28;98391.19;;;2.79;100.00
65897;BME280;52677;50.898;10.854;2023-02-01T05:11:29;98374.63;;;2.84;100.00
65897;BME280;52677;50.898;10.854;2023-02-01T05:13:47;98381.22;;;2.83;100.00
65897;BME280;52677;50.898;10.854;2023-02-01T05:15:50;98381.56;;;2.81;100.00
65897;BME280;52677;50.898;10.854;2023-02-01T05:17:50;98367.72;;;2.78;100.00
65897;BME280;52677;50.898;10.854;2023-02-01T05:19:51;98380.63;;;2.69;100.00
65897;BME280;52677;50.898;10.854;2023-02-01T05:21:51;98382.66;;;2.80;100.00
65897;BME280;52677;50.898;10.854;2023-02-01T05:23:51;98367.06;;;2.81;100.00
65897;BME280;52677;50.898;10.854;2023-02-01T05:26:09;98384.00;;;2.74;100.00
65897;BME280;52677;50.898;10.854;2023-02-01T05:28:10;98376.78;;;2.70;100.00
65897;BME280;52677;50.898;10.854;2023-02-01T05:30:11;98371.47;;;2.73;100.00
65897;BME280;52677;50.898;10.854;2023-02-01T05:32:11;98371.41;;;2.82;100.00
65897;BME280;52677;50.898;10.854;2023-02-01T05:34:12;98361.13;;;2.79;100.00
65897;BME280;52677;50.898;10.854;2023-02-01T05:36:13;98373.38;;;2.73;100.00
65897;BME280;52677;50.898;10.854;2023-02-01T05:38:14;98364.66;;;2.79;100.00
65897;BME280;52677;50.898;10.854;2023-02-01T05:40:14;98363.22;;;2.82;100.00
65897;BME280;52677;50.898;10.854;2023-02-01T05:42:14;98366.41;;;2.84;100.00
65897;BME280;52677;50.898;10.854;2023-02-01T05:44:15;98357.59;;;2.78;100.00
65897;BME280;52677;50.898;10.854;2023-02-01T05:46:15;98368.94;;;2.89;100.00
65897;BME280;52677;50.898;10.854;2023-02-01T05:48:15;98352.41;;;2.86;100.00
65897;BME280;52677;50.898;10.854;2023-02-01T05:50:16;98358.84;;;2.81;100.00
65897;BME280;52677;50.898;10.854;2023-02-01T05:52:16;98356.47;;;2.79;100.00
65897;BME280;52677;50.898;10.854;2023-02-01T05:54:19;98357.31;;;2.71;100.00
65897;BME280;52677;50.898;10.854;2023-02-01T05:56:20;98352.34;;;2.73;100.00
65897;BME280;52677;50.898;10.854;2023-02-01T05:58:20;98356.50;;;2.71;100.00
65897;BME280;52677;50.898;10.854;2023-02-01T06:00:21;98362.78;;;2.71;100.00
65897;BME280;52677;50.898;10.854;2023-02-01T06:02:22;98365.16;;;2.73;100.00
65897;BME280;52677;50.898;10.854;2023-02-01T06:04:24;98356.97;;;2.73;99.58
65897;BME280;52677;50.898;10.854;2023-02-01T06:06:24;98349.59;;;2.73;99.17
65897;BME280;52677;50.898;10.854;2023-02-01T06:08:24;98335.00;;;2.69;98.98
65897;BME280;52677;50.898;10.854;2023-02-01T06:10:25;98344.16;;;2.73;97.48
65897;BME280;52677;50.898;10.854;2023-02-01T06:12:26;98346.66;;;2.78;96.99
65897;BME280;52677;50.898;10.854;2023-02-01T06:14:28;98349.34;;;2.87;96.02
65897;BME280;52677;50.898;10.854;2023-02-01T06:16:29;98350.50;;;2.86;96.84
65897;BME280;52677;50.898;10.854;2023-02-01T06:18:30;98356.28;;;2.85;97.10
65897;BME280;52677;50.898;10.854;2023-02-01T06:20:30;98357.81;;;2.73;97.35
65897;BME280;52677;50.898;10.854;2023-02-01T06:22:31;98355.19;;;2.77;97.57
65897;BME280;52677;50.898;10.854;2023-02-01T06:24:31;98353.41;;;2.81;97.51
65897;BME280;52677;50.898;10.854;2023-02-01T06:26:31;98344.59;;;2.75;97.67
65897;BME280;52677;50.898;10.854;2023-02-01T06:28:32;98346.88;;;2.73;97.35
65897;BME280;52677;50.898;10.854;2023-02-01T06:30:33;98348.56;;;2.87;96.62
65897;BME280;52677;50.898;10.854;2023-02-01T06:32:33;98348.09;;;2.85;96.56
65897;BME280;52677;50.898;10.854;2023-02-01T06:34:34;98330.56;;;2.86;97.01
65897;BME280;52677;50.898;10.854;2023-02-01T06:36:34;98332.97;;;2.87;96.94
65897;BME280;52677;50.898;10.854;2023-02-01T06:38:35;98329.16;;;2.79;97.49
65897;BME280;52677;50.898;10.854;2023-02-01T06:40:35;98341.38;;;2.82;97.37
65897;BME280;52677;50.898;10.854;2023-02-01T06:42:35;98342.97;;;2.83;96.97
65897;BME280;52677;50.898;10.854;2023-02-01T06:44:36;98351.44;;;2.90;96.36
65897;BME280;52677;50.898;10.854;2023-02-01T06:46:36;98335.69;;;2.87;96.13
65897;BME280;52677;50.898;10.854;2023-02-01T06:48:37;98329.88;;;2.89;95.32
65897;BME280;52677;50.898;10.854;2023-02-01T06:50:37;98336.31;;;2.93;95.59
65897;BME280;52677;50.898;10.854;2023-02-01T06:52:37;98326.84;;;2.90;96.11
65897;BME280;52677;50.898;10.854;2023-02-01T06:54:38;98329.44;;;2.87;95.38
65897;BME280;52677;50.898;10.854;2023-02-01T06:56:38;98328.44;;;2.91;95.28
65897;BME280;52677;50.898;10.854;2023-02-01T06:58:39;98308.19;;;2.92;95.54
65897;BME280;52677;50.898;10.854;2023-02-01T07:00:39;98344.16;;;2.94;95.93
65897;BME280;52677;50.898;10.854;2023-02-01T07:02:39;98334.38;;;2.93;95.58
65897;BME280;52677;50.898;10.854;2023-02-01T07:04:40;98323.78;;;2.92;95.68
65897;BME280;52677;50.898;10.854;2023-02-01T07:06:40;98326.63;;;2.95;95.47
65897;BME280;52677;50.898;10.854;2023-02-01T07:08:40;98309.44;;;2.95;95.82
65897;BME280;52677;50.898;10.854;2023-02-01T07:10:41;98327.16;;;2.89;96.88
65897;BME280;52677;50.898;10.854;2023-02-01T07:12:41;98328.16;;;2.84;97.03
65897;BME280;52677;50.898;10.854;2023-02-01T07:14:42;98323.97;;;2.87;97.22
65897;BME280;52677;50.898;10.854;2023-02-01T07:16:42;98317.03;;;2.89;97.07
65897;BME280;52677;50.898;10.854;2023-02-01T07:18:43;98334.03;;;2.95;96.98
65897;BME280;52677;50.898;10.854;2023-02-01T07:20:49;98314.78;;;2.91;97.01
65897;BME280;52677;50.898;10.854;2023-02-01T07:22:54;98310.91;;;2.92;97.27
65897;BME280;52677;50.898;10.854;2023-02-01T07:24:55;98310.75;;;2.89;97.57
65897;BME280;52677;50.898;10.854;2023-02-01T07:26:55;98298.91;;;2.85;97.96
65897;BME280;52677;50.898;10.854;2023-02-01T07:28:55;98310.97;;;2.84;97.88
65897;BME280;52677;50.898;10.854;2023-02-01T07:31:02;98311.09;;;2.87;97.42
65897;BME280;52677;50.898;10.854;2023-02-01T07:33:03;98307.84;;;2.94;96.99
65897;BME280;52677;50.898;10.854;2023-02-01T07:35:03;98322.13;;;2.99;97.27
65897;BME280;52677;50.898;10.854;2023-02-01T07:37:04;98337.72;;;2.99;97.70
65897;BME280;52677;50.898;10.854;2023-02-01T07:39:04;98332.25;;;2.99;97.43
65897;BME280;52677;50.898;10.854;2023-02-01T07:41:06;98322.25;;;3.03;97.18
65897;BME280;52677;50.898;10.854;2023-02-01T07:43:06;98339.38;;;3.12;96.66
65897;BME280;52677;50.898;10.854;2023-02-01T07:45:08;98346.16;;;3.15;96.78
65897;BME280;52677;50.898;10.854;2023-02-01T07:47:08;98343.06;;;3.16;96.64
65897;BME280;52677;50.898;10.854;2023-02-01T07:49:08;98338.53;;;3.20;96.31
65897;BME280;52677;50.898;10.854;2023-02-01T07:51:11;98359.25;;;3.21;96.82
65897;BME280;52677;50.898;10.854;2023-02-01T07:53:12;98349.47;;;3.20;97.11
65897;BME280;52677;50.898;10.854;2023-02-01T07:55:12;98350.25;;;3.21;96.54
65897;BME280;52677;50.898;10.854;2023-02-01T07:57:13;98351.78;;;3.30;95.88
65897;BME280;52677;50.898;10.854;2023-02-01T07:59:13;98366.25;;;3.31;96.33
65897;BME280;52677;50.898;10.854;2023-02-01T08:01:23;98364.66;;;3.30;96.33
65897;BME280;52677;50.898;10.854;2023-02-01T08:03:26;98360.69;;;3.27;96.61
65897;BME280;52677;50.898;10.854;2023-02-01T08:05:27;98371.63;;;3.27;96.78
65897;BME280;52677;50.898;10.854;2023-02-01T08:07:27;98367.41;;;3.30;96.72
65897;BME280;52677;50.898;10.854;2023-02-01T08:09:27;98373.94;;;3.37;96.55
65897;BME280;52677;50.898;10.854;2023-02-01T08:11:28;98361.75;;;3.35;96.86
65897;BME280;52677;50.898;10.854;2023-02-01T08:13:29;98364.66;;;3.30;97.43
65897;BME280;52677;50.898;10.854;2023-02-01T08:15:30;98374.97;;;3.33;97.64
65897;BME280;52677;50.898;10.854;2023-02-01T08:17:30;98364.59;;;3.38;97.87
65897;BME280;52677;50.898;10.854;2023-02-01T08:19:30;98371.03;;;3.43;98.13
65897;BME280;52677;50.898;10.854;2023-02-01T08:21:31;98378.44;;;3.42;97.81
65897;BME280;52677;50.898;10.854;2023-02-01T08:23:37;98377.63;;;3.42;99.20
65897;BME280;52677;50.898;10.854;2023-02-01T08:25:38;98376.50;;;3.43;99.49
65897;BME280;52677;50.898;10.854;2023-02-01T08:27:38;98385.09;;;3.32;99.63
65897;BME280;52677;50.898;10.854;2023-02-01T08:29:39;98397.25;;;3.44;99.57
65897;BME280;52677;50.898;10.854;2023-02-01T08:31:39;98386.75;;;3.46;99.45
65897;BME280;52677;50.898;10.854;2023-02-01T08:33:47;98408.91;;;3.53;99.75
65897;BME280;52677;50.898;10.854;2023-02-01T08:35:47;98399.78;;;3.49;100.00
65897;BME280;52677;50.898;10.854;2023-02-01T08:37:50;98408.00;;;3.49;100.00
65897;BME280;52677;50.898;10.854;2023-02-01T08:39:50;98412.06;;;3.43;100.00
65897;BME280;52677;50.898;10.854;2023-02-01T08:41:50;98407.38;;;3.43;100.00
65897;BME280;52677;50.898;10.854;2023-02-01T08:44:09;98415.91;;;3.42;100.00
65897;BME280;52677;50.898;10.854;2023-02-01T08:46:11;98418.31;;;3.43;100.00
65897;BME280;52677;50.898;10.854;2023-02-01T08:48:11;98421.38;;;3.42;100.00
65897;BME280;52677;50.898;10.854;2023-02-01T08:50:12;98437.97;;;3.36;100.00
65897;BME280;52677;50.898;10.854;2023-02-01T08:52:12;98434.63;;;3.31;100.00
65897;BME280;52677;50.898;10.854;2023-02-01T08:54:13;98438.75;;;3.16;100.00
65897;BME280;52677;50.898;10.854;2023-02-01T08:56:15;98438.59;;;3.13;100.00
65897;BME280;52677;50.898;10.854;2023-02-01T08:58:15;98436.38;;;3.15;100.00
65897;BME280;52677;50.898;10.854;2023-02-01T09:00:17;98427.19;;;3.10;100.00
65897;BME280;52677;50.898;10.854;2023-02-01T09:02:18;98430.72;;;3.11;100.00
65897;BME280;52677;50.898;10.854;2023-02-01T09:04:18;98449.75;;;3.07;100.00
65897;BME280;52677;50.898;10.854;2023-02-01T09:06:19;98441.84;;;3.06;100.00
65897;BME280;52677;50.898;10.854;2023-02-01T09:08:19;98447.97;;;3.03;100.00
65897;BME280;52677;50.898;10.854;2023-02-01T09:10:20;98436.59;;;3.01;100.00
65897;BME280;52677;50.898;10.854;2023-02-01T09:12:20;98447.88;;;2.91;100.00
65897;BME280;52677;50.898;10.854;2023-02-01T09:14:20;98436.34;;;2.85;100.00
65897;BME280;52677;50.898;10.854;2023-02-01T09:16:21;98439.41;;;2.84;100.00
65897;BME280;52677;50.898;10.854;2023-02-01T09:18:21;98449.31;;;2.88;100.00
65897;BME280;52677;50.898;10.854;2023-02-01T09:20:22;98445.47;;;2.89;100.00
65897;BME280;52677;50.898;10.854;2023-02-01T09:22:24;98437.94;;;2.86;100.00
65897;BME280;52677;50.898;10.854;2023-02-01T09:24:24;98450.94;;;2.89;100.00
65897;BME280;52677;50.898;10.854;2023-02-01T09:26:25;98436.19;;;2.81;100.00
65897;BME280;52677;50.898;10.854;2023-02-01T09:28:25;98431.00;;;2.89;100.00
65897;BME280;52677;50.898;10.854;2023-02-01T09:30:26;98441.28;;;2.92;100.00
65897;BME280;52677;50.898;10.854;2023-02-01T09:32:26;98430.66;;;2.99;100.00
65897;BME280;52677;50.898;10.854;2023-02-01T09:34:27;98451.00;;;3.10;100.00
65897;BME280;52677;50.898;10.854;2023-02-01T09:36:27;98431.88;;;3.10;100.00
65897;BME280;52677;50.898;10.854;2023-02-01T09:38:28;98425.09;;;3.16;100.00
65897;BME280;52677;50.898;10.854;2023-02-01T09:40:28;98432.91;;;3.26;100.00
65897;BME280;52677;50.898;10.854;2023-02-01T09:45:10;98447.41;;;3.48;100.00
65897;BME280;52677;50.898;10.854;2023-02-01T09:47:17;98446.28;;;3.49;100.00
65897;BME280;52677;50.898;10.854;2023-02-01T09:49:23;98435.66;;;3.47;100.00
65897;BME280;52677;50.898;10.854;2023-02-01T09:51:48;98455.94;;;3.46;100.00
65897;BME280;52677;50.898;10.854;2023-02-01T09:54:01;98446.19;;;3.36;100.00
65897;BME280;52677;50.898;10.854;2023-02-01T09:56:24;98451.13;;;3.43;100.00
65897;BME280;52677;50.898;10.854;2023-02-01T09:58:34;98453.19;;;3.46;100.00
65897;BME280;52677;50.898;10.854;2023-02-01T10:00:38;98453.47;;;3.53;100.00
65897;BME280;52677;50.898;10.854;2023-02-01T10:02:39;98449.16;;;3.52;100.00
65897;BME280;52677;50.898;10.854;2023-02-01T10:04:40;98436.09;;;3.58;100.00
65897;BME280;52677;50.898;10.854;2023-02-01T10:10:50;98428.59;;;3.67;100.00
65897;BME280;52677;50.898;10.854;2023-02-01T10:13:10;98437.88;;;3.75;100.00
65897;BME280;52677;50.898;10.854;2023-02-01T10:17:50;98418.19;;;3.81;100.00
65897;BME280;52677;50.898;10.854;2023-02-01T10:20:06;98416.84;;;3.87;100.00
65897;BME280;52677;50.898;10.854;2023-02-01T10:24:51;98418.97;;;4.03;99.63
65897;BME280;52677;50.898;10.854;2023-02-01T10:27:02;98420.16;;;4.14;99.38
65897;BME280;52677;50.898;10.854;2023-02-01T10:29:15;98421.06;;;4.18;99.41
65897;BME280;52677;50.898;10.854;2023-02-01T10:31:18;98405.25;;;4.23;99.44
65897;BME280;52677;50.898;10.854;2023-02-01T10:33:24;98417.56;;;4.30;98.22
65897;BME280;52677;50.898;10.854;2023-02-01T10:35:28;98431.59;;;4.28;98.01
65897;BME280;52677;50.898;10.854;2023-02-01T10:37:32;98406.94;;;4.28;97.25
65897;BME280;52677;50.898;10.854;2023-02-01T10:39:33;98410.75;;;4.36;97.20
65897;BME280;52677;50.898;10.854;2023-02-01T10:41:36;98408.81;;;4.36;97.57
65897;BME280;52677;50.898;10.854;2023-02-01T10:43:37;98389.50;;;4.33;96.75
65897;BME280;52677;50.898;10.854;2023-02-01T10:45:40;98396.03;;;4.40;96.64
65897;BME280;52677;50.898;10.854;2023-02-01T10:47:42;98409.50;;;4.45;96.24
65897;BME280;52677;50.898;10.854;2023-02-01T10:51:51;98417.72;;;4.33;96.72
65897;BME280;52677;50.898;10.854;2023-02-01T10:53:57;98419.09;;;4.39;96.56
65897;BME280;52677;50.898;10.854;2023-02-01T10:56:06;98396.38;;;4.39;95.29
65897;BME280;52677;50.898;10.854;2023-02-01T10:58:15;98388.63;;;4.41;95.67
65897;BME280;52677;50.898;10.854;2023-02-01T11:00:20;98386.78;;;4.45;95.57
65897;BME280;52677;50.898;10.854;2023-02-01T11:02:32;98399.44;;;4.37;95.76
65897;BME280;52677;50.898;10.854;2023-02-01T11:04:34;98401.03;;;4.38;94.93
65897;BME280;52677;50.898;10.854;2023-02-01T11:06:37;98400.47;;;4.33;96.11
65897;BME280;52677;50.898;10.854;2023-02-01T11:08:53;98393.50;;;4.35;96.36
65897;BME280;52677;50.898;10.854;2023-02-01T11:11:00;98390.97;;;4.30;96.08
65897;BME280;52677;50.898;10.854;2023-02-01T11:13:05;98396.22;;;4.23;95.90
65897;BME280;52677;50.898;10.854;2023-02-01T11:19:17;98405.34;;;4.27;95.06
65897;BME280;52677;50.898;10.854;2023-02-01T11:21:17;98384.59;;;4.26;95.15
65897;BME280;52677;50.898;10.854;2023-02-01T11:23:20;98378.31;;;4.38;93.63
65897;BME280;52677;50.898;10.854;2023-02-01T11:25:22;98375.16;;;4.48;93.29
65897;BME280;52677;50.898;10.854;2023-02-01T11:27:24;98379.84;;;4.47;93.90
65897;BME280;52677;50.898;10.854;2023-02-01T11:29:25;98374.38;;;4.47;92.83
65897;BME280;52677;50.898;10.854;2023-02-01T11:31:30;98402.88;;;4.46;93.66
65897;BME280;52677;50.898;10.854;2023-02-01T11:33:35;98395.34;;;4.43;93.70